Time,TemperatureF,DewpointF,PressureIn,WindDirection,WindDirectionDegrees,WindSpeedMPH,WindSpeedGustMPH,Humidity,HourlyPrecipIn,Conditions,Clouds,dailyrainin,SoftwareType,DateUTC
2013-08-21 00:57:00,73.8,63.6,29.26,SE,135,0.7,0.7,70,0.00,,,0.00,WUHU21623XXSP,2013-08-21 05:57:00,
2013-08-21 01:57:00,73.0,63.6,29.26,SE,135,0.0,0.0,72,0.00,,,0.00,WUHU21623XXSP,2013-08-21 06:57:00,
2013-08-21 02:57:00,72.1,63.1,29.26,SE,135,1.6,1.6,73,0.00,,,0.00,WUHU21623XXSP,2013-08-21 07:57:00,
2013-08-21 03:57:00,71.2,62.3,29.26,SE,135,0.0,0.0,73,0.00,,,0.00,WUHU21623XXSP,2013-08-21 08:57:00,
2013-08-21 04:57:00,70.7,62.5,29.26,SE,135,2.7,2.7,75,0.00,,,0.00,WUHU21623XXSP,2013-08-21 09:57:00,
2013-08-21 05:29:00,70.3,62.0,29.27,SSE,157,0.0,0.0,75,0.00,,,0.00,WUHU21623XXSP,2013-08-21 10:29:00,
2013-08-21 05:34:00,70.3,62.3,29.28,SSE,157,0.0,0.0,76,0.00,,,0.00,WUHU21623XXSP,2013-08-21 10:34:00,
2013-08-21 05:39:00,70.2,62.3,29.28,South,180,0.0,0.9,76,0.00,,,0.00,WUHU21623XXSP,2013-08-21 10:39:00,
2013-08-21 05:44:00,70.2,62.2,29.28,SSE,157,0.0,0.9,76,0.00,,,0.00,WUHU21623XXSP,2013-08-21 10:44:00,
2013-08-21 05:49:00,70.2,62.2,29.28,SE,135,3.6,3.6,76,0.00,,,0.00,WUHU21623XXSP,2013-08-21 10:49:00,
2013-08-21 05:54:00,70.2,62.2,29.28,SE,135,3.6,3.6,76,0.00,,,0.00,WUHU21623XXSP,2013-08-21 10:54:00,
2013-08-21 05:59:00,70.2,62.2,29.28,SSE,157,0.0,3.6,76,0.00,,,0.00,WUHU21623XXSP,2013-08-21 10:59:00,
2013-08-21 06:04:00,70.2,62.2,29.28,SE,135,0.0,0.0,76,0.00,,,0.00,WUHU21623XXSP,2013-08-21 11:04:00,
2013-08-21 06:09:00,70.2,62.2,29.28,SE,135,1.3,1.3,76,0.00,,,0.00,WUHU21623XXSP,2013-08-21 11:09:00,
2013-08-21 06:14:00,70.0,62.0,29.28,SSE,157,1.8,2.9,76,0.00,,,0.00,WUHU21623XXSP,2013-08-21 11:14:00,
2013-08-21 06:19:00,70.0,62.0,29.28,SSE,157,1.6,2.9,76,0.00,,,0.00,WUHU21623XXSP,2013-08-21 11:19:00,
2013-08-21 06:24:00,70.0,62.0,29.28,SE,135,0.4,1.8,76,0.00,,,0.00,WUHU21623XXSP,2013-08-21 11:24:00,
2013-08-21 06:29:00,70.0,62.0,29.28,SSE,157,0.0,0.7,76,0.00,,,0.00,WUHU21623XXSP,2013-08-21 11:29:00,
2013-08-21 06:34:00,69.8,62.0,29.28,SSE,157,0.0,0.7,76,0.00,,,0.00,WUHU21623XXSP,2013-08-21 11:34:00,
2013-08-21 06:39:00,69.8,61.8,29.28,SE,135,2.5,2.5,76,0.00,,,0.00,WUHU21623XXSP,2013-08-21 11:39:00,
2013-08-21 06:44:00,69.8,62.2,29.28,SSE,157,2.2,2.5,77,0.00,,,0.00,WUHU21623XXSP,2013-08-21 11:44:00,
2013-08-21 06:49:00,69.6,62.0,29.29,SSE,157,0.0,2.5,77,0.00,,,0.00,WUHU21623XXSP,2013-08-21 11:49:00,
2013-08-21 06:54:00,69.6,62.0,29.29,SE,135,1.6,1.6,77,0.00,,,0.00,WUHU21623XXSP,2013-08-21 11:54:00,
2013-08-21 06:59:00,69.8,62.2,29.29,SE,135,1.8,2.5,77,0.00,,,0.00,WUHU21623XXSP,2013-08-21 11:59:00,
2013-08-21 07:04:00,70.0,62.4,29.29,South,180,3.1,3.1,77,0.00,,,0.00,WUHU21623XXSP,2013-08-21 12:04:00,
2013-08-21 07:09:00,70.0,62.4,29.29,ESE,112,2.0,3.1,77,0.00,,,0.00,WUHU21623XXSP,2013-08-21 12:09:00,
2013-08-21 07:14:00,70.0,62.4,29.29,SSE,157,1.3,5.1,77,0.00,,,0.00,WUHU21623XXSP,2013-08-21 12:14:00,
2013-08-21 07:19:00,70.0,62.4,29.29,SSE,157,0.0,5.1,77,0.00,,,0.00,WUHU21623XXSP,2013-08-21 12:19:00,
2013-08-21 07:24:00,70.0,62.4,29.30,SSE,157,0.0,0.9,77,0.00,,,0.00,WUHU21623XXSP,2013-08-21 12:24:00,
2013-08-21 07:29:00,70.3,62.7,29.30,SSE,157,0.9,1.8,77,0.00,,,0.00,WUHU21623XXSP,2013-08-21 12:29:00,
2013-08-21 07:34:00,70.3,62.7,29.30,SSW,202,0.0,1.8,77,0.00,,,0.00,WUHU21623XXSP,2013-08-21 12:34:00,
2013-08-21 07:39:00,70.7,63.1,29.30,SSE,157,0.0,0.0,77,0.00,,,0.00,WUHU21623XXSP,2013-08-21 12:39:00,
2013-08-21 07:44:00,70.9,63.3,29.30,South,180,1.3,1.3,77,0.00,,,0.00,WUHU21623XXSP,2013-08-21 12:44:00,
2013-08-21 07:49:00,71.2,63.6,29.30,WSW,247,1.3,1.3,77,0.00,,,0.00,WUHU21623XXSP,2013-08-21 12:49:00,
2013-08-21 07:54:00,71.4,63.8,29.30,SSW,202,0.0,1.3,77,0.00,,,0.00,WUHU21623XXSP,2013-08-21 12:54:00,
2013-08-21 07:59:00,71.4,63.8,29.30,South,180,0.0,0.0,77,0.00,,,0.00,WUHU21623XXSP,2013-08-21 12:59:00,
2013-08-21 08:04:00,71.8,63.8,29.30,SSW,202,0.0,0.0,76,0.00,,,0.00,WUHU21623XXSP,2013-08-21 13:04:00,
2013-08-21 08:09:00,72.3,64.3,29.31,SE,135,4.3,4.3,76,0.00,,,0.00,WUHU21623XXSP,2013-08-21 13:09:00,
2013-08-21 08:14:00,72.5,64.5,29.31,SSW,202,0.2,4.3,76,0.00,,,0.00,WUHU21623XXSP,2013-08-21 13:14:00,
2013-08-21 08:19:00,72.7,64.7,29.31,SSE,157,2.0,4.3,76,0.00,,,0.00,WUHU21623XXSP,2013-08-21 13:19:00,
2013-08-21 08:24:00,72.9,64.9,29.31,South,180,0.0,2.0,76,0.00,,,0.00,WUHU21623XXSP,2013-08-21 13:24:00,
2013-08-21 08:29:00,73.0,64.7,29.30,SE,135,0.0,0.0,75,0.00,,,0.00,WUHU21623XXSP,2013-08-21 13:29:00,
2013-08-21 08:34:00,73.0,64.7,29.30,South,180,6.0,6.0,75,0.00,,,0.00,WUHU21623XXSP,2013-08-21 13:34:00,
2013-08-21 08:39:00,73.2,64.8,29.31,SSW,202,0.0,6.0,75,0.00,,,0.00,WUHU21623XXSP,2013-08-21 13:39:00,
2013-08-21 08:44:00,73.2,64.8,29.31,SW,225,0.0,1.8,75,0.00,,,0.00,WUHU21623XXSP,2013-08-21 13:44:00,
2013-08-21 08:49:00,73.4,65.0,29.31,SSW,202,0.0,0.0,75,0.00,,,0.00,WUHU21623XXSP,2013-08-21 13:49:00,
2013-08-21 08:54:00,73.8,65.4,29.31,SSW,202,0.0,3.8,75,0.00,,,0.00,WUHU21623XXSP,2013-08-21 13:54:00,
2013-08-21 08:59:00,74.1,65.7,29.30,SW,225,1.1,3.8,75,0.00,,,0.00,WUHU21623XXSP,2013-08-21 13:59:00,
2013-08-21 09:04:00,74.7,66.2,29.30,SSW,202,0.0,1.1,75,0.00,,,0.00,WUHU21623XXSP,2013-08-21 14:04:00,
2013-08-21 09:09:00,75.2,66.7,29.30,SSW,202,0.0,0.0,75,0.00,,,0.00,WUHU21623XXSP,2013-08-21 14:09:00,
2013-08-21 09:14:00,75.6,66.5,29.30,West,270,0.0,0.0,74,0.00,,,0.00,WUHU21623XXSP,2013-08-21 14:14:00,
2013-08-21 09:19:00,75.9,66.6,29.30,WSW,247,4.9,4.9,73,0.00,,,0.00,WUHU21623XXSP,2013-08-21 14:19:00,
2013-08-21 09:24:00,76.6,67.3,29.30,West,270,0.0,4.9,73,0.00,,,0.00,WUHU21623XXSP,2013-08-21 14:24:00,
2013-08-21 09:29:00,77.0,67.7,29.30,SE,135,0.0,0.0,73,0.00,,,0.00,WUHU21623XXSP,2013-08-21 14:29:00,
2013-08-21 09:34:00,77.5,67.8,29.30,West,270,0.7,5.6,72,0.00,,,0.00,WUHU21623XXSP,2013-08-21 14:34:00,
2013-08-21 09:39:00,78.1,67.9,29.30,WSW,247,0.0,5.6,71,0.00,,,0.00,WUHU21623XXSP,2013-08-21 14:39:00,
2013-08-21 09:44:00,78.4,67.9,29.30,SW,225,4.0,6.5,70,0.00,,,0.00,WUHU21623XXSP,2013-08-21 14:44:00,
2013-08-21 09:49:00,78.8,68.0,29.30,WSW,247,2.9,6.5,70,0.00,,,0.00,WUHU21623XXSP,2013-08-21 14:49:00,
2013-08-21 09:54:00,79.3,68.3,29.30,West,270,0.7,5.4,69,0.00,,,0.00,WUHU21623XXSP,2013-08-21 14:54:00,
2013-08-21 09:59:00,79.7,68.2,29.30,South,180,6.3,6.3,68,0.00,,,0.00,WUHU21623XXSP,2013-08-21 14:59:00,
2013-08-21 10:04:00,80.1,68.5,29.30,SW,225,2.9,6.3,68,0.00,,,0.00,WUHU21623XXSP,2013-08-21 15:04:00,
2013-08-21 10:09:00,80.4,68.5,29.30,SW,225,0.0,6.0,67,0.00,,,0.00,WUHU21623XXSP,2013-08-21 15:09:00,
2013-08-21 10:14:00,81.1,69.1,29.30,West,270,2.5,6.0,67,0.00,,,0.00,WUHU21623XXSP,2013-08-21 15:14:00,
2013-08-21 10:19:00,81.3,68.7,29.30,West,270,2.0,2.5,66,0.00,,,0.00,WUHU21623XXSP,2013-08-21 15:19:00,
2013-08-21 10:24:00,81.7,68.5,29.30,South,180,3.6,3.6,65,0.00,,,0.00,WUHU21623XXSP,2013-08-21 15:24:00,
2013-08-21 10:29:00,82.0,68.6,29.30,WSW,247,2.7,3.6,64,0.00,,,0.00,WUHU21623XXSP,2013-08-21 15:29:00,
2013-08-21 10:34:00,81.9,68.6,29.30,WSW,247,2.7,3.6,64,0.00,,,0.00,WUHU21623XXSP,2013-08-21 15:34:00,
2013-08-21 10:39:00,82.0,68.6,29.30,SW,225,3.8,3.8,64,0.00,,,0.00,WUHU21623XXSP,2013-08-21 15:39:00,
2013-08-21 10:44:00,82.2,68.7,29.30,SSW,202,5.4,5.4,64,0.00,,,0.00,WUHU21623XXSP,2013-08-21 15:44:00,
2013-08-21 10:49:00,82.9,68.6,29.30,WSW,247,2.7,5.4,63,0.00,,,0.00,WUHU21623XXSP,2013-08-21 15:49:00,
2013-08-21 10:54:00,83.5,69.1,29.30,West,270,4.3,5.4,62,0.00,,,0.00,WUHU21623XXSP,2013-08-21 15:54:00,
2013-08-21 10:59:00,83.7,69.1,29.30,West,270,4.3,5.1,62,0.00,,,0.00,WUHU21623XXSP,2013-08-21 15:59:00,
2013-08-21 11:04:00,83.8,69.4,29.30,SW,225,0.0,4.3,62,0.00,,,0.00,WUHU21623XXSP,2013-08-21 16:04:00,
2013-08-21 11:09:00,84.4,70.0,29.30,SW,225,2.7,4.9,62,0.00,,,0.00,WUHU21623XXSP,2013-08-21 16:09:00,
2013-08-21 11:14:00,84.7,69.8,29.30,SW,225,0.0,4.9,61,0.00,,,0.00,WUHU21623XXSP,2013-08-21 16:14:00,
2013-08-21 11:19:00,84.9,69.5,29.30,SW,225,2.0,2.9,60,0.00,,,0.00,WUHU21623XXSP,2013-08-21 16:19:00,
2013-08-21 11:24:00,84.9,68.9,29.30,WSW,247,1.3,2.9,60,0.00,,,0.00,WUHU21623XXSP,2013-08-21 16:24:00,
2013-08-21 11:29:00,84.9,69.5,29.30,WSW,247,1.3,1.3,60,0.00,,,0.00,WUHU21623XXSP,2013-08-21 16:29:00,
2013-08-21 11:34:00,85.3,69.9,29.30,SSW,202,0.0,3.6,60,0.00,,,0.00,WUHU21623XXSP,2013-08-21 16:34:00,
2013-08-21 11:39:00,85.5,70.2,29.30,West,270,1.8,3.6,59,0.00,,,0.00,WUHU21623XXSP,2013-08-21 16:39:00,
2013-08-21 11:44:00,85.3,69.3,29.29,SW,225,7.6,7.6,59,0.00,,,0.00,WUHU21623XXSP,2013-08-21 16:44:00,
2013-08-21 11:49:00,85.1,69.3,29.29,SSE,157,0.0,7.6,59,0.00,,,0.00,WUHU21623XXSP,2013-08-21 16:49:00,
2013-08-21 11:54:00,84.7,68.9,29.29,SW,225,0.7,4.3,59,0.00,,,0.00,WUHU21623XXSP,2013-08-21 16:54:00,
2013-08-21 11:59:00,84.6,69.2,29.30,SW,225,0.7,4.3,60,0.00,,,0.00,WUHU21623XXSP,2013-08-21 16:59:00,
2013-08-21 12:04:00,84.6,69.2,29.30,SW,225,2.7,2.9,60,0.00,,,0.00,WUHU21623XXSP,2013-08-21 17:04:00,
2013-08-21 12:09:00,84.9,69.5,29.30,WSW,247,2.2,2.9,60,0.00,,,0.00,WUHU21623XXSP,2013-08-21 17:09:00,
2013-08-21 12:14:00,85.5,69.7,29.29,SSW,202,0.9,2.7,60,0.00,,,0.00,WUHU21623XXSP,2013-08-21 17:14:00,
2013-08-21 12:19:00,85.8,69.8,29.29,SSW,202,1.1,1.1,59,0.00,,,0.00,WUHU21623XXSP,2013-08-21 17:19:00,
2013-08-21 12:24:00,85.8,69.8,29.29,SE,135,0.0,3.8,59,0.00,,,0.00,WUHU21623XXSP,2013-08-21 17:24:00,
2013-08-21 12:29:00,86.0,70.0,29.29,SW,225,0.0,3.8,59,0.00,,,0.00,WUHU21623XXSP,2013-08-21 17:29:00,
2013-08-21 12:34:00,86.4,70.9,29.29,SW,225,0.0,3.6,60,0.00,,,0.00,WUHU21623XXSP,2013-08-21 17:34:00,
2013-08-21 12:39:00,87.1,70.7,29.29,West,270,4.0,5.6,58,0.00,,,0.00,WUHU21623XXSP,2013-08-21 17:39:00,
2013-08-21 12:44:00,87.4,70.3,29.29,West,270,4.3,5.6,57,0.00,,,0.00,WUHU21623XXSP,2013-08-21 17:44:00,
2013-08-21 12:49:00,87.6,70.5,29.29,West,270,4.3,5.4,57,0.00,,,0.00,WUHU21623XXSP,2013-08-21 17:49:00,
2013-08-21 12:54:00,88.3,71.2,29.29,West,270,3.8,4.3,57,0.00,,,0.00,WUHU21623XXSP,2013-08-21 17:54:00,
2013-08-21 12:59:00,88.3,70.6,29.29,WSW,247,3.4,3.8,55,0.00,,,0.00,WUHU21623XXSP,2013-08-21 17:59:00,
2013-08-21 13:04:00,88.2,69.9,29.29,West,270,2.9,3.4,55,0.00,,,0.00,WUHU21623XXSP,2013-08-21 18:04:00,
2013-08-21 13:09:00,88.3,70.1,29.29,West,270,0.4,3.4,55,0.00,,,0.00,WUHU21623XXSP,2013-08-21 18:09:00,
2013-08-21 13:14:00,88.7,71.0,29.29,SSE,157,3.1,3.1,56,0.00,,,0.00,WUHU21623XXSP,2013-08-21 18:14:00,
2013-08-21 13:19:00,89.2,70.9,29.29,WSW,247,3.4,3.4,55,0.00,,,0.00,WUHU21623XXSP,2013-08-21 18:19:00,
2013-08-21 13:24:00,89.4,71.1,29.28,SSW,202,0.0,3.4,55,0.00,,,0.00,WUHU21623XXSP,2013-08-21 18:24:00,
2013-08-21 13:29:00,89.8,70.9,29.29,West,270,1.1,8.3,54,0.00,,,0.00,WUHU21623XXSP,2013-08-21 18:29:00,
2013-08-21 13:34:00,90.0,71.6,29.28,West,270,0.7,2.9,55,0.00,,,0.00,WUHU21623XXSP,2013-08-21 18:34:00,
2013-08-21 13:39:00,90.1,71.2,29.28,SW,225,10.7,10.7,54,0.00,,,0.00,WUHU21623XXSP,2013-08-21 18:39:00,
2013-08-21 13:44:00,90.3,71.3,29.28,West,270,2.5,10.7,54,0.00,,,0.00,WUHU21623XXSP,2013-08-21 18:44:00,
2013-08-21 13:49:00,90.3,71.3,29.28,West,270,7.8,7.8,54,0.00,,,0.00,WUHU21623XXSP,2013-08-21 18:49:00,
2013-08-21 13:54:00,90.5,71.0,29.28,SW,225,4.3,7.8,53,0.00,,,0.00,WUHU21623XXSP,2013-08-21 18:54:00,
2013-08-21 13:59:00,90.7,71.1,29.28,ENE,67,0.0,4.3,53,0.00,,,0.00,WUHU21623XXSP,2013-08-21 18:59:00,
2013-08-21 14:04:00,91.0,70.9,29.27,West,270,3.8,4.3,52,0.00,,,0.00,WUHU21623XXSP,2013-08-21 19:04:00,
2013-08-21 14:09:00,91.0,70.9,29.27,SW,225,4.0,4.0,52,0.00,,,0.00,WUHU21623XXSP,2013-08-21 19:09:00,
2013-08-21 14:14:00,91.2,70.9,29.27,North,0,0.0,4.0,52,0.00,,,0.00,WUHU21623XXSP,2013-08-21 19:14:00,
2013-08-21 14:19:00,91.2,70.5,29.27,East,90,0.0,3.1,51,0.00,,,0.00,WUHU21623XXSP,2013-08-21 19:19:00,
2013-08-21 14:24:00,91.2,70.5,29.27,SSW,202,0.0,3.1,51,0.00,,,0.00,WUHU21623XXSP,2013-08-21 19:24:00,
2013-08-21 14:29:00,91.4,70.7,29.26,ESE,112,4.0,4.9,51,0.00,,,0.00,WUHU21623XXSP,2013-08-21 19:29:00,
2013-08-21 14:34:00,91.6,70.9,29.26,South,180,4.0,4.9,51,0.00,,,0.00,WUHU21623XXSP,2013-08-21 19:34:00,
2013-08-21 14:39:00,91.8,71.0,29.26,SE,135,5.1,5.1,51,0.00,,,0.00,WUHU21623XXSP,2013-08-21 19:39:00,
2013-08-21 14:44:00,91.9,70.6,29.26,NNW,337,7.6,7.6,50,0.00,,,0.00,WUHU21623XXSP,2013-08-21 19:44:00,
2013-08-21 14:49:00,91.9,70.6,29.26,SE,135,5.1,7.6,50,0.00,,,0.00,WUHU21623XXSP,2013-08-21 19:49:00,
2013-08-21 14:54:00,92.1,70.8,29.25,WSW,247,0.0,6.7,50,0.00,,,0.00,WUHU21623XXSP,2013-08-21 19:54:00,
2013-08-21 14:59:00,92.1,70.8,29.26,SW,225,2.9,6.7,50,0.00,,,0.00,WUHU21623XXSP,2013-08-21 19:59:00,
2013-08-21 15:04:00,92.1,70.2,29.26,SE,135,5.4,6.3,49,0.00,,,0.00,WUHU21623XXSP,2013-08-21 20:04:00,
2013-08-21 15:09:00,92.1,70.2,29.26,WSW,247,6.7,7.6,49,0.00,,,0.00,WUHU21623XXSP,2013-08-21 20:09:00,
2013-08-21 15:14:00,92.1,70.2,29.25,WSW,247,0.0,8.9,49,0.00,,,0.00,WUHU21623XXSP,2013-08-21 20:14:00,
2013-08-21 15:19:00,92.1,70.8,29.25,SW,225,0.9,8.9,50,0.00,,,0.00,WUHU21623XXSP,2013-08-21 20:19:00,
2013-08-21 15:24:00,92.3,71.0,29.25,SSW,202,0.0,3.1,50,0.00,,,0.00,WUHU21623XXSP,2013-08-21 20:24:00,
2013-08-21 15:29:00,92.5,71.1,29.26,SE,135,0.9,3.1,50,0.00,,,0.00,WUHU21623XXSP,2013-08-21 20:29:00,
2013-08-21 15:34:00,92.5,69.8,29.26,SW,225,2.2,2.2,48,0.00,,,0.00,WUHU21623XXSP,2013-08-21 20:34:00,
2013-08-21 15:39:00,92.5,70.5,29.26,West,270,1.8,4.9,49,0.00,,,0.00,WUHU21623XXSP,2013-08-21 20:39:00,
2013-08-21 15:44:00,92.8,71.5,29.26,SE,135,2.0,6.0,50,0.00,,,0.00,WUHU21623XXSP,2013-08-21 20:44:00,
2013-08-21 15:49:00,92.8,71.5,29.27,WSW,247,4.9,6.0,50,0.00,,,0.00,WUHU21623XXSP,2013-08-21 20:49:00,
2013-08-21 15:54:00,92.8,70.8,29.27,WSW,247,4.5,5.4,49,0.00,,,0.00,WUHU21623XXSP,2013-08-21 20:54:00,
2013-08-21 15:59:00,92.8,71.5,29.26,SSE,157,2.7,4.9,50,0.00,,,0.00,WUHU21623XXSP,2013-08-21 20:59:00,
2013-08-21 16:04:00,93.0,71.0,29.26,WSW,247,3.6,4.5,49,0.00,,,0.00,WUHU21623XXSP,2013-08-21 21:04:00,
2013-08-21 16:09:00,93.0,71.0,29.26,SSW,202,0.0,8.5,49,0.00,,,0.00,WUHU21623XXSP,2013-08-21 21:09:00,
2013-08-21 16:14:00,93.0,71.0,29.25,WSW,247,0.0,8.5,49,0.00,,,0.00,WUHU21623XXSP,2013-08-21 21:14:00,
2013-08-21 16:19:00,93.2,71.1,29.25,SSW,202,1.1,4.5,49,0.00,,,0.00,WUHU21623XXSP,2013-08-21 21:19:00,
2013-08-21 16:24:00,93.0,71.0,29.25,SE,135,0.0,3.8,49,0.00,,,0.00,WUHU21623XXSP,2013-08-21 21:24:00,
2013-08-21 16:29:00,93.0,71.0,29.25,South,180,0.4,7.6,49,0.00,,,0.00,WUHU21623XXSP,2013-08-21 21:29:00,
2013-08-21 16:34:00,93.0,71.0,29.25,WSW,247,5.4,7.6,49,0.00,,,0.00,WUHU21623XXSP,2013-08-21 21:34:00,
2013-08-21 16:39:00,93.0,71.6,29.24,WSW,247,0.0,5.4,50,0.00,,,0.00,WUHU21623XXSP,2013-08-21 21:39:00,
2013-08-21 16:44:00,92.8,71.5,29.24,SSE,157,5.8,5.8,50,0.00,,,0.00,WUHU21623XXSP,2013-08-21 21:44:00,
2013-08-21 16:49:00,92.8,71.5,29.24,WSW,247,4.0,5.8,50,0.00,,,0.00,WUHU21623XXSP,2013-08-21 21:49:00,
2013-08-21 16:54:00,92.5,71.1,29.25,West,270,1.6,4.0,50,0.00,,,0.00,WUHU21623XXSP,2013-08-21 21:54:00,
2013-08-21 16:59:00,92.5,71.1,29.24,SW,225,2.2,3.1,50,0.00,,,0.00,WUHU21623XXSP,2013-08-21 21:59:00,
2013-08-21 17:04:00,92.5,71.1,29.25,WSW,247,0.0,5.6,50,0.00,,,0.00,WUHU21623XXSP,2013-08-21 22:04:00,
2013-08-21 17:09:00,92.1,71.3,29.24,West,270,2.2,5.6,51,0.00,,,0.00,WUHU21623XXSP,2013-08-21 22:09:00,
2013-08-21 17:14:00,92.1,71.3,29.24,WSW,247,3.1,3.1,50,0.00,,,0.00,WUHU21623XXSP,2013-08-21 22:14:00,
2013-08-21 17:19:00,92.1,70.8,29.24,WSW,247,3.8,3.8,50,0.00,,,0.00,WUHU21623XXSP,2013-08-21 22:19:00,
2013-08-21 17:24:00,91.9,70.6,29.24,WSW,247,0.9,3.8,50,0.00,,,0.00,WUHU21623XXSP,2013-08-21 22:24:00,
2013-08-21 17:29:00,91.8,70.5,29.24,SW,225,4.0,4.0,50,0.00,,,0.00,WUHU21623XXSP,2013-08-21 22:29:00,
2013-08-21 17:34:00,91.8,71.0,29.24,SW,225,0.9,4.0,51,0.00,,,0.00,WUHU21623XXSP,2013-08-21 22:34:00,
2013-08-21 17:39:00,91.6,71.0,29.24,WSW,247,0.7,4.0,51,0.00,,,0.00,WUHU21623XXSP,2013-08-21 22:39:00,
2013-08-21 17:44:00,91.6,70.9,29.24,WSW,247,0.7,0.9,51,0.00,,,0.00,WUHU21623XXSP,2013-08-21 22:44:00,
2013-08-21 17:49:00,91.2,70.5,29.24,South,180,0.0,0.7,51,0.00,,,0.00,WUHU21623XXSP,2013-08-21 22:49:00,
2013-08-21 17:54:00,91.2,70.5,29.24,West,270,1.8,1.8,51,0.00,,,0.00,WUHU21623XXSP,2013-08-21 22:54:00,
2013-08-21 17:59:00,91.2,70.5,29.23,WSW,247,1.1,2.9,51,0.00,,,0.00,WUHU21623XXSP,2013-08-21 22:59:00,
2013-08-21 18:04:00,91.0,70.4,29.23,South,180,0.0,2.9,51,0.00,,,0.00,WUHU21623XXSP,2013-08-21 23:04:00,
2013-08-21 18:09:00,90.7,70.1,29.23,South,180,0.9,0.9,52,0.00,,,0.00,WUHU21623XXSP,2013-08-21 23:09:00,
2013-08-21 18:14:00,90.5,70.4,29.23,SW,225,0.0,0.9,52,0.00,,,0.00,WUHU21623XXSP,2013-08-21 23:14:00,
2013-08-21 18:19:00,90.3,70.3,29.23,WSW,247,3.8,3.8,52,0.00,,,0.00,WUHU21623XXSP,2013-08-21 23:19:00,
2013-08-21 18:24:00,90.0,69.4,29.23,WSW,247,0.9,4.3,51,0.00,,,0.00,WUHU21623XXSP,2013-08-21 23:24:00,
2013-08-21 18:29:00,89.6,69.6,29.23,SW,225,2.9,4.3,52,0.00,,,0.00,WUHU21623XXSP,2013-08-21 23:29:00,
2013-08-21 18:34:00,89.2,69.3,29.23,WNW,292,0.0,2.9,52,0.00,,,0.00,WUHU21623XXSP,2013-08-21 23:34:00,
2013-08-21 18:39:00,88.9,69.1,29.23,SSW,202,0.0,0.0,53,0.00,,,0.00,WUHU21623XXSP,2013-08-21 23:39:00,
2013-08-21 18:44:00,88.5,69.2,29.23,WSW,247,0.0,0.0,53,0.00,,,0.00,WUHU21623XXSP,2013-08-21 23:44:00,
2013-08-21 18:49:00,88.5,69.2,29.22,ENE,67,0.4,0.4,53,0.00,,,0.00,WUHU21623XXSP,2013-08-21 23:49:00,
2013-08-21 18:54:00,88.0,69.2,29.22,SSW,202,0.0,0.4,54,0.00,,,0.00,WUHU21623XXSP,2013-08-21 23:54:00,
2013-08-21 18:59:00,87.6,69.4,29.22,SSW,202,0.0,0.0,55,0.00,,,0.00,WUHU21623XXSP,2013-08-21 23:59:00,
2013-08-21 19:04:00,87.6,69.4,29.22,SSW,202,0.7,0.7,55,0.00,,,0.00,WUHU21623XXSP,2013-08-22 00:04:00,
2013-08-21 19:09:00,87.4,69.3,29.22,SSW,202,0.0,0.7,55,0.00,,,0.00,WUHU21623XXSP,2013-08-22 00:09:00,
2013-08-21 19:14:00,87.4,69.3,29.21,SSW,202,0.0,0.7,55,0.00,,,0.00,WUHU21623XXSP,2013-08-22 00:14:00,
2013-08-21 19:19:00,87.6,69.4,29.21,SSW,202,0.0,0.0,55,0.00,,,0.00,WUHU21623XXSP,2013-08-22 00:19:00,
2013-08-21 19:24:00,86.9,68.8,29.21,WSW,247,0.0,0.0,55,0.00,,,0.00,WUHU21623XXSP,2013-08-22 00:24:00,
2013-08-21 19:29:00,86.5,68.9,29.21,SSW,202,0.7,4.9,56,0.00,,,0.00,WUHU21623XXSP,2013-08-22 00:29:00,
2013-08-21 19:34:00,86.0,68.4,29.22,WSW,247,0.0,4.9,56,0.00,,,0.00,WUHU21623XXSP,2013-08-22 00:34:00,
2013-08-21 19:39:00,85.6,68.6,29.22,SW,225,1.1,1.1,57,0.00,,,0.00,WUHU21623XXSP,2013-08-22 00:39:00,
2013-08-21 19:44:00,85.1,68.1,29.22,South,180,0.0,1.1,57,0.00,,,0.00,WUHU21623XXSP,2013-08-22 00:44:00,
2013-08-21 19:49:00,84.9,68.0,29.22,SSW,202,0.0,0.0,57,0.00,,,0.00,WUHU21623XXSP,2013-08-22 00:49:00,
2013-08-21 19:54:00,84.4,68.0,29.22,SE,135,0.0,0.0,58,0.00,,,0.00,WUHU21623XXSP,2013-08-22 00:54:00,
2013-08-21 19:59:00,84.0,67.7,29.22,SSE,157,0.0,0.0,58,0.00,,,0.00,WUHU21623XXSP,2013-08-22 00:59:00,
2013-08-21 20:04:00,84.0,67.7,29.23,SSW,202,0.0,0.0,58,0.00,,,0.00,WUHU21623XXSP,2013-08-22 01:04:00,
2013-08-21 20:09:00,83.5,67.7,29.23,SSE,157,0.0,0.0,59,0.00,,,0.00,WUHU21623XXSP,2013-08-22 01:09:00,
2013-08-21 20:14:00,83.5,67.7,29.23,SSW,202,0.0,0.0,59,0.00,,,0.00,WUHU21623XXSP,2013-08-22 01:14:00,
2013-08-21 20:19:00,83.1,67.3,29.23,SW,225,0.0,0.0,59,0.00,,,0.00,WUHU21623XXSP,2013-08-22 01:19:00,
2013-08-21 20:24:00,82.9,67.6,29.23,SW,225,0.0,0.0,60,0.00,,,0.00,WUHU21623XXSP,2013-08-22 01:24:00,
2013-08-21 20:29:00,82.8,67.5,29.23,SW,225,0.0,0.0,60,0.00,,,0.00,WUHU21623XXSP,2013-08-22 01:29:00,
2013-08-21 20:34:00,82.6,67.3,29.24,SE,135,0.0,0.0,60,0.00,,,0.00,WUHU21623XXSP,2013-08-22 01:34:00,
2013-08-21 20:39:00,82.2,66.9,29.23,SSE,157,0.0,0.0,60,0.00,,,0.00,WUHU21623XXSP,2013-08-22 01:39:00,
2013-08-21 20:44:00,82.2,66.9,29.23,SSE,157,0.0,1.6,60,0.00,,,0.00,WUHU21623XXSP,2013-08-22 01:44:00,
2013-08-21 20:49:00,82.0,66.8,29.24,SSE,157,0.0,1.6,60,0.00,,,0.00,WUHU21623XXSP,2013-08-22 01:49:00,
2013-08-21 20:54:00,81.7,66.9,29.24,SE,135,0.0,0.0,61,0.00,,,0.00,WUHU21623XXSP,2013-08-22 01:54:00,
2013-08-21 20:59:00,81.5,66.7,29.25,SSE,157,0.4,0.4,61,0.00,,,0.00,WUHU21623XXSP,2013-08-22 01:59:00,
2013-08-21 21:04:00,81.3,66.6,29.25,SE,135,0.0,0.4,61,0.00,,,0.00,WUHU21623XXSP,2013-08-22 02:04:00,
2013-08-21 21:09:00,81.1,66.6,29.25,SE,135,0.0,0.0,61,0.00,,,0.00,WUHU21623XXSP,2013-08-22 02:09:00,
2013-08-21 21:14:00,81.0,66.7,29.25,SSW,202,0.0,0.0,62,0.00,,,0.00,WUHU21623XXSP,2013-08-22 02:14:00,
2013-08-21 21:19:00,80.8,66.5,29.25,South,180,0.0,0.0,62,0.00,,,0.00,WUHU21623XXSP,2013-08-22 02:19:00,
2013-08-21 21:24:00,80.6,66.4,29.25,SSE,157,0.0,0.0,62,0.00,,,0.00,WUHU21623XXSP,2013-08-22 02:24:00,
2013-08-21 21:29:00,80.4,66.2,29.25,SSE,157,0.4,0.4,62,0.00,,,0.00,WUHU21623XXSP,2013-08-22 02:29:00,
2013-08-21 21:34:00,80.4,66.7,29.25,SSE,157,0.0,0.4,63,0.00,,,0.00,WUHU21623XXSP,2013-08-22 02:34:00,
2013-08-21 21:39:00,80.2,66.5,29.25,SSE,157,1.3,1.3,63,0.00,,,0.00,WUHU21623XXSP,2013-08-22 02:39:00,
2013-08-21 21:44:00,80.1,66.3,29.25,SE,135,3.4,3.4,63,0.00,,,0.00,WUHU21623XXSP,2013-08-22 02:44:00,
2013-08-21 21:49:00,79.9,66.1,29.25,SSE,157,0.0,3.4,63,0.00,,,0.00,WUHU21623XXSP,2013-08-22 02:49:00,
2013-08-21 21:54:00,79.7,66.4,29.26,SSE,157,1.1,1.1,64,0.00,,,0.00,WUHU21623XXSP,2013-08-22 02:54:00,
2013-08-21 21:59:00,79.5,66.3,29.26,SSE,157,0.0,1.1,64,0.00,,,0.00,WUHU21623XXSP,2013-08-22 02:59:00,
2013-08-21 22:04:00,79.5,66.3,29.25,SE,135,0.7,0.7,64,0.00,,,0.00,WUHU21623XXSP,2013-08-22 03:04:00,
2013-08-21 22:09:00,79.3,66.5,29.26,South,180,0.0,0.7,65,0.00,,,0.00,WUHU21623XXSP,2013-08-22 03:09:00,
2013-08-21 22:14:00,79.3,66.5,29.26,North,0,0.2,0.7,65,0.00,,,0.00,WUHU21623XXSP,2013-08-22 03:14:00,
2013-08-21 22:19:00,79.2,66.4,29.26,SE,135,0.2,0.7,65,0.00,,,0.00,WUHU21623XXSP,2013-08-22 03:19:00,
2013-08-21 22:24:00,79.0,66.2,29.26,ENE,67,0.0,3.6,65,0.00,,,0.00,WUHU21623XXSP,2013-08-22 03:24:00,
2013-08-21 22:29:00,79.0,66.2,29.26,SSE,157,0.0,3.6,65,0.00,,,0.00,WUHU21623XXSP,2013-08-22 03:29:00,
2013-08-21 22:57:00,78.4,66.3,29.26,SSE,158,0.0,0.0,66,0.00,,,0.00,WUHU21623XXSP,2013-08-22 03:57:00,
2013-08-21 23:57:00,76.8,65.7,29.26,SE,135,0.0,0.0,68,0.00,,,0.00,WUHU21623XXSP,2013-08-22 04:57:00,